sensor_id;sensor_type;location;lat;lon;timestamp;pressure;altitude;pressure_sealevel;temperature;humidity
76464;BME280;65301;46.666;20.110;2024-03-29T00:00:28;100081.59;;;8.43;100.00
76464;BME280;65301;46.666;20.110;2024-03-29T00:03:29;100095.22;;;8.45;100.00
76464;BME280;65301;46.666;20.110;2024-03-29T00:06:30;100114.88;;;8.39;100.00
76464;BME280;65301;46.666;20.110;2024-03-29T00:09:30;100127.41;;;8.42;100.00
76464;BME280;65301;46.666;20.110;2024-03-29T00:12:31;100143.81;;;8.39;100.00
76464;BME280;65301;46.666;20.110;2024-03-29T00:15:32;100148.06;;;8.48;100.00
76464;BME280;65301;46.666;20.110;2024-03-29T00:18:33;100141.09;;;8.52;100.00
76464;BME280;65301;46.666;20.110;2024-03-29T00:21:34;100116.59;;;8.43;100.00
76464;BME280;65301;46.666;20.110;2024-03-29T00:24:35;100124.66;;;8.47;100.00
76464;BME280;65301;46.666;20.110;2024-03-29T00:27:37;100132.31;;;8.57;100.00
76464;BME280;65301;46.666;20.110;2024-03-29T00:30:37;100125.25;;;8.44;100.00
76464;BME280;65301;46.666;20.110;2024-03-29T00:33:38;100111.72;;;8.59;100.00
76464;BME280;65301;46.666;20.110;2024-03-29T00:36:39;100099.03;;;8.61;100.00
76464;BME280;65301;46.666;20.110;2024-03-29T00:39:40;100103.81;;;8.59;100.00
76464;BME280;65301;46.666;20.110;2024-03-29T00:42:40;100102.88;;;8.55;100.00
76464;BME280;65301;46.666;20.110;2024-03-29T00:45:41;100100.53;;;8.53;100.00
76464;BME280;65301;46.666;20.110;2024-03-29T00:48:42;100112.59;;;8.46;100.00
76464;BME280;65301;46.666;20.110;2024-03-29T00:51:44;100101.09;;;8.42;100.00
76464;BME280;65301;46.666;20.110;2024-03-29T00:54:45;100116.75;;;8.47;100.00
76464;BME280;65301;46.666;20.110;2024-03-29T00:57:46;100118.19;;;8.53;100.00
76464;BME280;65301;46.666;20.110;2024-03-29T01:00:46;100132.00;;;8.58;100.00
76464;BME280;65301;46.666;20.110;2024-03-29T01:03:47;100130.88;;;8.51;100.00
76464;BME280;65301;46.666;20.110;2024-03-29T01:06:48;100150.81;;;8.43;100.00
76464;BME280;65301;46.666;20.110;2024-03-29T01:09:49;100157.13;;;8.42;100.00
76464;BME280;65301;46.666;20.110;2024-03-29T01:12:50;100189.78;;;8.41;100.00
76464;BME280;65301;46.666;20.110;2024-03-29T01:15:51;100216.50;;;8.35;100.00
76464;BME280;65301;46.666;20.110;2024-03-29T01:18:52;100232.84;;;8.45;100.00
76464;BME280;65301;46.666;20.110;2024-03-29T01:21:53;100223.38;;;8.44;100.00
76464;BME280;65301;46.666;20.110;2024-03-29T01:24:53;100242.41;;;8.41;100.00
76464;BME280;65301;46.666;20.110;2024-03-29T01:27:56;100268.13;;;8.44;100.00
76464;BME280;65301;46.666;20.110;2024-03-29T01:30:57;100270.88;;;8.39;100.00
76464;BME280;65301;46.666;20.110;2024-03-29T01:33:59;100274.47;;;8.43;100.00
76464;BME280;65301;46.666;20.110;2024-03-29T01:37:02;100268.72;;;8.41;100.00
76464;BME280;65301;46.666;20.110;2024-03-29T01:40:03;100279.28;;;8.28;100.00
76464;BME280;65301;46.666;20.110;2024-03-29T01:43:04;100285.81;;;8.30;100.00
76464;BME280;65301;46.666;20.110;2024-03-29T01:46:05;100307.91;;;8.43;100.00
76464;BME280;65301;46.666;20.110;2024-03-29T01:49:09;100323.22;;;8.41;100.00
76464;BME280;65301;46.666;20.110;2024-03-29T01:52:10;100326.03;;;8.44;100.00
76464;BME280;65301;46.666;20.110;2024-03-29T01:55:12;100345.25;;;8.31;100.00
76464;BME280;65301;46.666;20.110;2024-03-29T01:58:13;100362.97;;;8.26;100.00
76464;BME280;65301;46.666;20.110;2024-03-29T02:01:15;100358.19;;;8.41;100.00
76464;BME280;65301;46.666;20.110;2024-03-29T02:04:17;100358.50;;;8.40;100.00
76464;BME280;65301;46.666;20.110;2024-03-29T02:07:19;100374.84;;;8.37;100.00
76464;BME280;65301;46.666;20.110;2024-03-29T02:10:20;100380.13;;;8.37;100.00
76464;BME280;65301;46.666;20.110;2024-03-29T02:13:20;100381.63;;;8.29;100.00
76464;BME280;65301;46.666;20.110;2024-03-29T02:16:21;100389.28;;;8.26;100.00
76464;BME280;65301;46.666;20.110;2024-03-29T02:19:22;100393.84;;;8.20;100.00
76464;BME280;65301;46.666;20.110;2024-03-29T02:22:24;100394.81;;;8.11;100.00
76464;BME280;65301;46.666;20.110;2024-03-29T02:25:25;100389.72;;;8.00;100.00
76464;BME280;65301;46.666;20.110;2024-03-29T02:28:26;100393.63;;;7.89;100.00
76464;BME280;65301;46.666;20.110;2024-03-29T02:31:27;100406.53;;;7.72;100.00
76464;BME280;65301;46.666;20.110;2024-03-29T02:34:28;100406.84;;;7.52;100.00
76464;BME280;65301;46.666;20.110;2024-03-29T02:37:28;100411.09;;;7.34;100.00
76464;BME280;65301;46.666;20.110;2024-03-29T02:40:29;100414.50;;;7.16;100.00
76464;BME280;65301;46.666;20.110;2024-03-29T02:43:30;100425.00;;;7.16;100.00
76464;BME280;65301;46.666;20.110;2024-03-29T02:46:31;100425.94;;;7.07;100.00
76464;BME280;65301;46.666;20.110;2024-03-29T02:49:31;100429.97;;;6.99;100.00
76464;BME280;65301;46.666;20.110;2024-03-29T02:52:32;100447.91;;;6.73;100.00
76464;BME280;65301;46.666;20.110;2024-03-29T02:55:33;100459.59;;;6.62;100.00
76464;BME280;65301;46.666;20.110;2024-03-29T02:58:35;100467.59;;;6.71;100.00
76464;BME280;65301;46.666;20.110;2024-03-29T03:01:35;100463.69;;;6.68;100.00
76464;BME280;65301;46.666;20.110;2024-03-29T03:04:37;100464.84;;;6.62;100.00
76464;BME280;65301;46.666;20.110;2024-03-29T03:07:39;100468.44;;;6.66;100.00
76464;BME280;65301;46.666;20.110;2024-03-29T03:10:58;100470.63;;;6.59;100.00
76464;BME280;65301;46.666;20.110;2024-03-29T03:14:02;100478.06;;;6.52;100.00
76464;BME280;65301;46.666;20.110;2024-03-29T03:17:03;100491.19;;;6.52;100.00
76464;BME280;65301;46.666;20.110;2024-03-29T03:20:04;100482.88;;;6.45;100.00
76464;BME280;65301;46.666;20.110;2024-03-29T03:23:07;100494.84;;;6.51;100.00
76464;BME280;65301;46.666;20.110;2024-03-29T03:26:08;100483.84;;;6.49;100.00
76464;BME280;65301;46.666;20.110;2024-03-29T03:29:09;100490.72;;;6.45;100.00
76464;BME280;65301;46.666;20.110;2024-03-29T03:32:10;100485.97;;;6.47;100.00
76464;BME280;65301;46.666;20.110;2024-03-29T03:35:11;100487.78;;;6.52;100.00
76464;BME280;65301;46.666;20.110;2024-03-29T03:38:12;100491.03;;;6.67;100.00
76464;BME280;65301;46.666;20.110;2024-03-29T03:41:13;100502.56;;;6.66;100.00
76464;BME280;65301;46.666;20.110;2024-03-29T03:44:14;100504.44;;;6.61;100.00
76464;BME280;65301;46.666;20.110;2024-03-29T03:47:15;100510.38;;;6.71;100.00
76464;BME280;65301;46.666;20.110;2024-03-29T03:50:16;100523.56;;;6.66;100.00
76464;BME280;65301;46.666;20.110;2024-03-29T03:53:16;100528.97;;;6.51;100.00
76464;BME280;65301;46.666;20.110;2024-03-29T03:56:18;100538.53;;;6.37;100.00
76464;BME280;65301;46.666;20.110;2024-03-29T03:59:19;100536.16;;;6.41;100.00
76464;BME280;65301;46.666;20.110;2024-03-29T04:02:20;100540.34;;;6.42;100.00
76464;BME280;65301;46.666;20.110;2024-03-29T04:05:21;100537.13;;;6.50;100.00
76464;BME280;65301;46.666;20.110;2024-03-29T04:08:22;100545.50;;;6.52;100.00
76464;BME280;65301;46.666;20.110;2024-03-29T04:11:22;100551.31;;;6.44;100.00
76464;BME280;65301;46.666;20.110;2024-03-29T04:14:23;100555.09;;;6.33;100.00
76464;BME280;65301;46.666;20.110;2024-03-29T04:17:24;100549.56;;;6.34;100.00
76464;BME280;65301;46.666;20.110;2024-03-29T04:20:25;100555.91;;;6.33;100.00
76464;BME280;65301;46.666;20.110;2024-03-29T04:23:26;100551.06;;;6.17;100.00
76464;BME280;65301;46.666;20.110;2024-03-29T04:26:27;100556.03;;;6.18;100.00
76464;BME280;65301;46.666;20.110;2024-03-29T04:29:27;100560.25;;;6.14;100.00
76464;BME280;65301;46.666;20.110;2024-03-29T04:32:28;100560.75;;;6.16;100.00
76464;BME280;65301;46.666;20.110;2024-03-29T04:35:29;100563.09;;;6.18;100.00
76464;BME280;65301;46.666;20.110;2024-03-29T04:38:31;100565.44;;;6.24;100.00
76464;BME280;65301;46.666;20.110;2024-03-29T04:41:32;100575.34;;;6.27;100.00
76464;BME280;65301;46.666;20.110;2024-03-29T04:44:35;100574.31;;;6.28;100.00
76464;BME280;65301;46.666;20.110;2024-03-29T04:47:35;100587.88;;;6.35;100.00
76464;BME280;65301;46.666;20.110;2024-03-29T04:50:36;100586.22;;;6.44;100.00
76464;BME280;65301;46.666;20.110;2024-03-29T04:53:38;100590.97;;;6.42;100.00
76464;BME280;65301;46.666;20.110;2024-03-29T04:56:39;100593.00;;;6.50;100.00
76464;BME280;65301;46.666;20.110;2024-03-29T04:59:39;100603.75;;;6.78;100.00
76464;BME280;65301;46.666;20.110;2024-03-29T05:02:40;100599.19;;;7.12;100.00
76464;BME280;65301;46.666;20.110;2024-03-29T05:05:41;100608.78;;;7.45;100.00
76464;BME280;65301;46.666;20.110;2024-03-29T05:08:42;100613.72;;;7.89;100.00
76464;BME280;65301;46.666;20.110;2024-03-29T05:11:42;100620.22;;;8.10;100.00
76464;BME280;65301;46.666;20.110;2024-03-29T05:14:43;100625.84;;;8.22;100.00
76464;BME280;65301;46.666;20.110;2024-03-29T05:17:44;100642.22;;;8.19;100.00
76464;BME280;65301;46.666;20.110;2024-03-29T05:20:45;100657.63;;;8.44;99.26
76464;BME280;65301;46.666;20.110;2024-03-29T05:23:49;100661.16;;;8.53;97.33
76464;BME280;65301;46.666;20.110;2024-03-29T05:26:50;100660.81;;;8.60;97.10
76464;BME280;65301;46.666;20.110;2024-03-29T05:29:51;100667.84;;;8.97;95.01
76464;BME280;65301;46.666;20.110;2024-03-29T05:32:52;100678.00;;;9.17;94.90
76464;BME280;65301;46.666;20.110;2024-03-29T05:35:53;100680.06;;;9.47;93.22
76464;BME280;65301;46.666;20.110;2024-03-29T05:38:54;100691.88;;;9.63;91.75
76464;BME280;65301;46.666;20.110;2024-03-29T05:41:54;100689.25;;;9.50;93.03
76464;BME280;65301;46.666;20.110;2024-03-29T05:44:55;100692.72;;;9.72;92.49
76464;BME280;65301;46.666;20.110;2024-03-29T05:47:57;100688.56;;;9.71;92.43
76464;BME280;65301;46.666;20.110;2024-03-29T05:50:58;100699.97;;;9.39;94.40
76464;BME280;65301;46.666;20.110;2024-03-29T05:54:00;100703.59;;;9.44;95.15
76464;BME280;65301;46.666;20.110;2024-03-29T05:57:00;100706.41;;;9.33;95.99
76464;BME280;65301;46.666;20.110;2024-03-29T06:00:01;100710.53;;;9.39;96.22
76464;BME280;65301;46.666;20.110;2024-03-29T06:03:05;100717.56;;;9.58;94.65
76464;BME280;65301;46.666;20.110;2024-03-29T06:06:06;100708.53;;;9.99;92.75
76464;BME280;65301;46.666;20.110;2024-03-29T06:09:07;100712.53;;;9.97;92.07
76464;BME280;65301;46.666;20.110;2024-03-29T06:12:08;100712.44;;;10.16;90.92
76464;BME280;65301;46.666;20.110;2024-03-29T06:15:12;100716.63;;;10.17;90.55
76464;BME280;65301;46.666;20.110;2024-03-29T06:18:31;100712.59;;;10.05;92.84
76464;BME280;65301;46.666;20.110;2024-03-29T06:21:33;100698.69;;;10.27;91.84
76464;BME280;65301;46.666;20.110;2024-03-29T06:24:39;100700.50;;;10.18;90.31
76464;BME280;65301;46.666;20.110;2024-03-29T06:27:41;100713.00;;;10.26;89.27
76464;BME280;65301;46.666;20.110;2024-03-29T06:30:44;100713.28;;;10.60;88.64
76464;BME280;65301;46.666;20.110;2024-03-29T06:33:44;100721.16;;;10.83;86.18
76464;BME280;65301;46.666;20.110;2024-03-29T06:36:45;100726.19;;;10.93;86.79
76464;BME280;65301;46.666;20.110;2024-03-29T06:39:46;100730.41;;;11.24;84.45
76464;BME280;65301;46.666;20.110;2024-03-29T06:42:47;100732.28;;;11.55;81.94
76464;BME280;65301;46.666;20.110;2024-03-29T06:45:47;100723.41;;;12.07;81.00
76464;BME280;65301;46.666;20.110;2024-03-29T06:48:48;100728.88;;;12.19;77.75
76464;BME280;65301;46.666;20.110;2024-03-29T06:51:50;100719.97;;;12.07;78.31
76464;BME280;65301;46.666;20.110;2024-03-29T06:54:51;100721.84;;;12.23;76.48
76464;BME280;65301;46.666;20.110;2024-03-29T06:57:52;100729.94;;;12.52;74.05
76464;BME280;65301;46.666;20.110;2024-03-29T07:00:52;100724.16;;;12.76;76.35
76464;BME280;65301;46.666;20.110;2024-03-29T07:03:53;100723.22;;;13.06;74.38
76464;BME280;65301;46.666;20.110;2024-03-29T07:06:54;100731.78;;;13.50;72.93
76464;BME280;65301;46.666;20.110;2024-03-29T07:09:56;100725.16;;;13.64;68.13
76464;BME280;65301;46.666;20.110;2024-03-29T07:12:57;100714.31;;;13.78;67.85
76464;BME280;65301;46.666;20.110;2024-03-29T07:16:07;100726.06;;;13.97;69.25
76464;BME280;65301;46.666;20.110;2024-03-29T07:19:12;100725.25;;;13.76;66.12
76464;BME280;65301;46.666;20.110;2024-03-29T07:22:14;100738.69;;;14.00;68.58
76464;BME280;65301;46.666;20.110;2024-03-29T07:25:15;100728.44;;;14.11;67.61
76464;BME280;65301;46.666;20.110;2024-03-29T07:28:16;100727.38;;;14.53;61.67
76464;BME280;65301;46.666;20.110;2024-03-29T07:31:17;100730.59;;;14.59;61.14
76464;BME280;65301;46.666;20.110;2024-03-29T07:34:18;100722.47;;;14.43;60.71
76464;BME280;65301;46.666;20.110;2024-03-29T07:37:19;100727.47;;;14.78;60.67
76464;BME280;65301;46.666;20.110;2024-03-29T07:40:21;100721.84;;;14.91;63.60
76464;BME280;65301;46.666;20.110;2024-03-29T07:43:22;100730.66;;;14.71;62.54
76464;BME280;65301;46.666;20.110;2024-03-29T07:46:23;100726.84;;;14.93;62.80
76464;BME280;65301;46.666;20.110;2024-03-29T07:49:24;100725.22;;;15.24;62.45
76464;BME280;65301;46.666;20.110;2024-03-29T07:52:24;100723.72;;;15.60;56.86
76464;BME280;65301;46.666;20.110;2024-03-29T07:55:25;100730.72;;;15.64;56.46
76464;BME280;65301;46.666;20.110;2024-03-29T07:58:26;100738.59;;;15.61;53.51
76464;BME280;65301;46.666;20.110;2024-03-29T08:01:27;100759.63;;;15.42;54.27
76464;BME280;65301;46.666;20.110;2024-03-29T08:04:28;100762.69;;;15.52;52.09
76464;BME280;65301;46.666;20.110;2024-03-29T08:07:31;100759.13;;;15.60;50.10
76464;BME280;65301;46.666;20.110;2024-03-29T08:10:32;100744.63;;;16.22;52.05
76464;BME280;65301;46.666;20.110;2024-03-29T08:13:33;100751.75;;;16.57;50.45
76464;BME280;65301;46.666;20.110;2024-03-29T08:16:34;100768.44;;;16.54;48.85
76464;BME280;65301;46.666;20.110;2024-03-29T08:19:36;100759.38;;;16.71;47.82
76464;BME280;65301;46.666;20.110;2024-03-29T08:22:37;100752.84;;;17.27;47.51
76464;BME280;65301;46.666;20.110;2024-03-29T08:25:37;100753.72;;;17.63;48.08
76464;BME280;65301;46.666;20.110;2024-03-29T08:28:38;100756.97;;;18.22;45.17
76464;BME280;65301;46.666;20.110;2024-03-29T08:31:39;100752.28;;;18.00;48.43
76464;BME280;65301;46.666;20.110;2024-03-29T08:34:40;100758.78;;;17.68;48.27
76464;BME280;65301;46.666;20.110;2024-03-29T08:37:41;100756.38;;;17.31;50.99
76464;BME280;65301;46.666;20.110;2024-03-29T08:40:42;100764.38;;;17.47;49.46
76464;BME280;65301;46.666;20.110;2024-03-29T08:43:44;100754.69;;;17.55;44.78
76464;BME280;65301;46.666;20.110;2024-03-29T08:46:45;100753.72;;;17.63;45.04
76464;BME280;65301;46.666;20.110;2024-03-29T08:49:46;100761.22;;;17.26;47.77
76464;BME280;65301;46.666;20.110;2024-03-29T08:52:46;100764.19;;;17.24;46.28
76464;BME280;65301;46.666;20.110;2024-03-29T08:55:47;100764.56;;;17.23;46.84
76464;BME280;65301;46.666;20.110;2024-03-29T08:58:51;100762.91;;;17.18;46.03
76464;BME280;65301;46.666;20.110;2024-03-29T09:01:52;100763.44;;;16.81;49.26
76464;BME280;65301;46.666;20.110;2024-03-29T09:04:53;100761.44;;;17.05;49.02
76464;BME280;65301;46.666;20.110;2024-03-29T09:07:55;100759.78;;;17.01;47.61
76464;BME280;65301;46.666;20.110;2024-03-29T09:10:55;100760.56;;;17.17;47.46
76464;BME280;65301;46.666;20.110;2024-03-29T09:13:56;100753.41;;;17.05;48.92
76464;BME280;65301;46.666;20.110;2024-03-29T09:16:59;100754.13;;;17.18;48.02
76464;BME280;65301;46.666;20.110;2024-03-29T09:20:00;100756.28;;;17.44;46.69
76464;BME280;65301;46.666;20.110;2024-03-29T09:23:00;100748.44;;;17.82;45.53
76464;BME280;65301;46.666;20.110;2024-03-29T09:26:04;100749.94;;;17.64;45.32
76464;BME280;65301;46.666;20.110;2024-03-29T09:29:05;100752.09;;;17.58;45.81
76464;BME280;65301;46.666;20.110;2024-03-29T09:32:06;100751.31;;;17.58;46.11
76464;BME280;65301;46.666;20.110;2024-03-29T09:35:07;100742.25;;;17.78;46.75
76464;BME280;65301;46.666;20.110;2024-03-29T09:38:08;100736.06;;;17.74;45.31
76464;BME280;65301;46.666;20.110;2024-03-29T09:41:16;100732.75;;;18.15;45.94
76464;BME280;65301;46.666;20.110;2024-03-29T09:44:17;100723.88;;;18.11;46.55
76464;BME280;65301;46.666;20.110;2024-03-29T09:47:19;100742.22;;;18.47;42.52
76464;BME280;65301;46.666;20.110;2024-03-29T09:50:21;100720.16;;;18.54;43.21
76464;BME280;65301;46.666;20.110;2024-03-29T09:53:23;100729.53;;;18.83;42.76
76464;BME280;65301;46.666;20.110;2024-03-29T09:56:25;100717.09;;;18.52;42.74
76464;BME280;65301;46.666;20.110;2024-03-29T09:59:27;100720.81;;;18.47;42.65
76464;BME280;65301;46.666;20.110;2024-03-29T10:02:30;100720.34;;;17.88;44.08
76464;BME280;65301;46.666;20.110;2024-03-29T10:05:33;100710.59;;;18.15;45.25
76464;BME280;65301;46.666;20.110;2024-03-29T10:08:34;100720.31;;;19.03;47.80
76464;BME280;65301;46.666;20.110;2024-03-29T10:11:35;100718.41;;;19.26;44.05
76464;BME280;65301;46.666;20.110;2024-03-29T10:14:46;100714.47;;;19.20;46.12
76464;BME280;65301;46.666;20.110;2024-03-29T10:17:52;100711.66;;;18.90;43.48
76464;BME280;65301;46.666;20.110;2024-03-29T10:21:04;100709.06;;;19.39;43.60
76464;BME280;65301;46.666;20.110;2024-03-29T10:24:16;100702.00;;;19.80;42.83
76464;BME280;65301;46.666;20.110;2024-03-29T10:27:21;100699.44;;;20.46;41.18
76464;BME280;65301;46.666;20.110;2024-03-29T10:30:24;100706.94;;;20.34;41.64
76464;BME280;65301;46.666;20.110;2024-03-29T10:33:32;100690.91;;;20.11;41.63
76464;BME280;65301;46.666;20.110;2024-03-29T10:36:33;100708.25;;;20.17;42.94
76464;BME280;65301;46.666;20.110;2024-03-29T10:39:36;100696.28;;;19.55;42.64
76464;BME280;65301;46.666;20.110;2024-03-29T10:42:37;100701.38;;;19.90;44.09
76464;BME280;65301;46.666;20.110;2024-03-29T10:45:41;100682.66;;;20.23;44.08
76464;BME280;65301;46.666;20.110;2024-03-29T10:48:42;100685.94;;;20.39;42.96
76464;BME280;65301;46.666;20.110;2024-03-29T10:51:45;100693.31;;;20.49;42.89
76464;BME280;65301;46.666;20.110;2024-03-29T10:54:47;100684.66;;;20.63;42.97
76464;BME280;65301;46.666;20.110;2024-03-29T10:57:49;100681.63;;;21.12;44.15
76464;BME280;65301;46.666;20.110;2024-03-29T11:00:53;100683.19;;;21.71;41.95
76464;BME280;65301;46.666;20.110;2024-03-29T11:04:03;100676.69;;;21.72;41.10
76464;BME280;65301;46.666;20.110;2024-03-29T11:07:12;100666.84;;;21.32;42.86
76464;BME280;65301;46.666;20.110;2024-03-29T11:10:25;100653.22;;;21.07;43.71
76464;BME280;65301;46.666;20.110;2024-03-29T11:16:55;100633.69;;;21.10;45.16
76464;BME280;65301;46.666;20.110;2024-03-29T11:19:59;100626.91;;;21.31;45.29
76464;BME280;65301;46.666;20.110;2024-03-29T11:23:04;100617.47;;;21.54;44.88
76464;BME280;65301;46.666;20.110;2024-03-29T11:26:10;100628.31;;;21.72;45.28
76464;BME280;65301;46.666;20.110;2024-03-29T11:29:22;100623.00;;;21.89;45.00
76464;BME280;65301;46.666;20.110;2024-03-29T11:32:37;100622.44;;;21.52;46.41
76464;BME280;65301;46.666;20.110;2024-03-29T11:35:42;100615.44;;;22.20;45.64
76464;BME280;65301;46.666;20.110;2024-03-29T11:38:45;100615.00;;;22.00;46.65
76464;BME280;65301;46.666;20.110;2024-03-29T11:41:50;100614.34;;;22.42;44.89
76464;BME280;65301;46.666;20.110;2024-03-29T11:44:51;100602.44;;;22.64;44.76
76464;BME280;65301;46.666;20.110;2024-03-29T11:47:52;100603.56;;;22.42;44.65
76464;BME280;65301;46.666;20.110;2024-03-29T11:50:55;100598.63;;;22.76;44.84
76464;BME280;65301;46.666;20.110;2024-03-29T11:53:55;100595.09;;;22.57;44.76
76464;BME280;65301;46.666;20.110;2024-03-29T11:56:57;100590.88;;;23.16;43.32
76464;BME280;65301;46.666;20.110;2024-03-29T11:59:57;100593.97;;;23.01;43.83
76464;BME280;65301;46.666;20.110;2024-03-29T12:02:58;100590.47;;;23.29;44.10
76464;BME280;65301;46.666;20.110;2024-03-29T12:05:59;100582.81;;;22.92;43.50
76464;BME280;65301;46.666;20.110;2024-03-29T12:09:03;100580.06;;;23.20;43.57
76464;BME280;65301;46.666;20.110;2024-03-29T12:12:07;100563.47;;;23.46;43.75
76464;BME280;65301;46.666;20.110;2024-03-29T12:15:12;100556.94;;;23.33;43.81
76464;BME280;65301;46.666;20.110;2024-03-29T12:18:12;100550.59;;;23.85;41.65
76464;BME280;65301;46.666;20.110;2024-03-29T12:21:14;100551.19;;;23.24;43.01
76464;BME280;65301;46.666;20.110;2024-03-29T12:24:16;100531.59;;;23.02;43.85
76464;BME280;65301;46.666;20.110;2024-03-29T12:27:17;100533.56;;;22.91;43.35
76464;BME280;65301;46.666;20.110;2024-03-29T12:30:18;100520.34;;;23.46;42.92
76464;BME280;65301;46.666;20.110;2024-03-29T12:33:21;100520.72;;;23.52;43.06
76464;BME280;65301;46.666;20.110;2024-03-29T12:36:25;100521.66;;;22.92;43.59
76464;BME280;65301;46.666;20.110;2024-03-29T12:39:30;100517.06;;;22.82;44.80
76464;BME280;65301;46.666;20.110;2024-03-29T12:42:34;100515.41;;;21.82;46.16
76464;BME280;65301;46.666;20.110;2024-03-29T12:45:35;100517.84;;;22.37;45.60
76464;BME280;65301;46.666;20.110;2024-03-29T12:48:36;100515.88;;;22.37;45.18
76464;BME280;65301;46.666;20.110;2024-03-29T12:51:40;100507.69;;;21.70;46.61
76464;BME280;65301;46.666;20.110;2024-03-29T12:54:41;100505.91;;;22.31;45.96
76464;BME280;65301;46.666;20.110;2024-03-29T12:57:41;100496.66;;;22.78;45.38
76464;BME280;65301;46.666;20.110;2024-03-29T13:00:44;100491.13;;;23.27;43.37
76464;BME280;65301;46.666;20.110;2024-03-29T13:03:45;100489.56;;;23.33;44.84
76464;BME280;65301;46.666;20.110;2024-03-29T13:06:46;100484.22;;;23.22;44.52
76464;BME280;65301;46.666;20.110;2024-03-29T13:09:47;100488.47;;;23.23;43.78
76464;BME280;65301;46.666;20.110;2024-03-29T13:12:48;100473.44;;;23.26;41.90
76464;BME280;65301;46.666;20.110;2024-03-29T13:15:50;100468.50;;;23.00;42.88
76464;BME280;65301;46.666;20.110;2024-03-29T13:18:52;100470.09;;;22.97;41.90
76464;BME280;65301;46.666;20.110;2024-03-29T13:21:53;100462.06;;;22.37;43.07
76464;BME280;65301;46.666;20.110;2024-03-29T13:24:54;100467.06;;;22.42;43.98
76464;BME280;65301;46.666;20.110;2024-03-29T13:27:55;100454.38;;;22.32;42.82
76464;BME280;65301;46.666;20.110;2024-03-29T13:30:56;100453.25;;;22.33;43.33
76464;BME280;65301;46.666;20.110;2024-03-29T13:33:57;100453.63;;;22.00;43.89
76464;BME280;65301;46.666;20.110;2024-03-29T13:37:04;100445.91;;;21.84;44.78
76464;BME280;65301;46.666;20.110;2024-03-29T13:40:08;100447.84;;;21.95;45.36
76464;BME280;65301;46.666;20.110;2024-03-29T13:43:09;100445.19;;;22.05;45.01
76464;BME280;65301;46.666;20.110;2024-03-29T13:46:10;100444.00;;;22.06;45.55
76464;BME280;65301;46.666;20.110;2024-03-29T13:49:11;100441.72;;;21.98;45.53
76464;BME280;65301;46.666;20.110;2024-03-29T13:52:14;100439.41;;;21.92;45.25
76464;BME280;65301;46.666;20.110;2024-03-29T13:55:16;100430.16;;;22.25;43.22
76464;BME280;65301;46.666;20.110;2024-03-29T13:58:16;100424.25;;;23.01;42.26
76464;BME280;65301;46.666;20.110;2024-03-29T14:01:17;100421.84;;;23.24;42.82
76464;BME280;65301;46.666;20.110;2024-03-29T14:04:18;100421.50;;;23.18;44.05
76464;BME280;65301;46.666;20.110;2024-03-29T14:07:19;100424.34;;;22.80;43.17
76464;BME280;65301;46.666;20.110;2024-03-29T14:10:20;100415.50;;;22.69;44.33
76464;BME280;65301;46.666;20.110;2024-03-29T14:13:21;100423.59;;;22.62;44.81
76464;BME280;65301;46.666;20.110;2024-03-29T14:16:22;100420.91;;;22.69;44.81
76464;BME280;65301;46.666;20.110;2024-03-29T14:19:23;100409.41;;;22.54;43.28
76464;BME280;65301;46.666;20.110;2024-03-29T14:22:25;100427.47;;;22.43;43.54
76464;BME280;65301;46.666;20.110;2024-03-29T14:25:26;100435.56;;;22.22;43.00
76464;BME280;65301;46.666;20.110;2024-03-29T14:28:27;100437.47;;;22.28;42.74
76464;BME280;65301;46.666;20.110;2024-03-29T14:31:28;100442.09;;;22.28;42.73
76464;BME280;65301;46.666;20.110;2024-03-29T14:34:29;100444.78;;;22.28;42.04
76464;BME280;65301;46.666;20.110;2024-03-29T14:37:32;100446.72;;;22.27;42.45
76464;BME280;65301;46.666;20.110;2024-03-29T14:40:33;100452.09;;;22.31;42.43
76464;BME280;65301;46.666;20.110;2024-03-29T14:43:36;100442.81;;;22.56;42.73
76464;BME280;65301;46.666;20.110;2024-03-29T14:46:36;100447.44;;;22.74;41.93
76464;BME280;65301;46.666;20.110;2024-03-29T14:49:38;100448.19;;;22.85;43.17
76464;BME280;65301;46.666;20.110;2024-03-29T14:52:38;100450.91;;;22.42;43.38
76464;BME280;65301;46.666;20.110;2024-03-29T14:55:39;100457.09;;;22.15;44.39
76464;BME280;65301;46.666;20.110;2024-03-29T14:58:41;100459.78;;;21.94;45.53
76464;BME280;65301;46.666;20.110;2024-03-29T15:01:42;100452.03;;;21.78;45.21
76464;BME280;65301;46.666;20.110;2024-03-29T15:04:43;100454.69;;;21.64;45.85
76464;BME280;65301;46.666;20.110;2024-03-29T15:07:44;100447.00;;;21.66;45.89
76464;BME280;65301;46.666;20.110;2024-03-29T15:10:45;100445.50;;;21.72;45.06
76464;BME280;65301;46.666;20.110;2024-03-29T15:13:46;100437.03;;;21.77;44.90
76464;BME280;65301;46.666;20.110;2024-03-29T15:16:47;100449.34;;;21.78;44.33
76464;BME280;65301;46.666;20.110;2024-03-29T15:19:49;100456.28;;;21.79;45.91
76464;BME280;65301;46.666;20.110;2024-03-29T15:22:52;100447.78;;;21.63;45.28
76464;BME280;65301;46.666;20.110;2024-03-29T15:25:55;100458.13;;;21.50;45.79
76464;BME280;65301;46.666;20.110;2024-03-29T15:28:57;100460.38;;;21.41;46.41
76464;BME280;65301;46.666;20.110;2024-03-29T15:32:13;100462.22;;;21.19;46.55
76464;BME280;65301;46.666;20.110;2024-03-29T15:35:14;100465.63;;;21.09;47.74
76464;BME280;65301;46.666;20.110;2024-03-29T15:38:15;100465.91;;;20.97;48.26
76464;BME280;65301;46.666;20.110;2024-03-29T15:41:20;100460.16;;;20.95;48.06